createdAt,value
2017-09-21T00:00:17.782Z,82.00
2017-09-21T00:02:45.382Z,82.10
2017-09-21T00:05:12.990Z,81.80
2017-09-21T00:07:40.597Z,81.80
2017-09-21T00:10:08.194Z,81.80
2017-09-21T00:12:36.575Z,81.40
2017-09-21T00:15:04.974Z,82.60
2017-09-21T00:17:32.534Z,83.20
2017-09-21T00:20:00.102Z,83.00
2017-09-21T00:22:27.726Z,83.10
2017-09-21T00:24:55.342Z,81.80
2017-09-21T00:27:22.954Z,81.20
2017-09-21T00:29:51.289Z,82.30
2017-09-21T00:32:18.945Z,82.30
2017-09-21T00:34:46.519Z,82.60
2017-09-21T00:37:14.085Z,83.60
2017-09-21T00:39:41.729Z,82.70
2017-09-21T00:42:09.299Z,82.50
2017-09-21T00:44:36.865Z,82.10
2017-09-21T00:47:04.477Z,82.10
2017-09-21T00:49:32.093Z,81.90
2017-09-21T00:51:59.698Z,82.30
2017-09-21T00:54:27.342Z,83.20
2017-09-21T00:56:55.747Z,82.30
2017-09-21T00:59:23.368Z,82.30
2017-09-21T01:01:50.958Z,82.00
2017-09-21T01:04:19.298Z,82.70
2017-09-21T01:06:46.922Z,82.70
2017-09-21T01:09:14.540Z,82.80
2017-09-21T01:11:42.119Z,82.60
2017-09-21T01:14:10.533Z,82.20
2017-09-21T01:16:38.113Z,82.10
2017-09-21T01:19:05.852Z,82.10
2017-09-21T01:21:33.462Z,82.20
2017-09-21T01:24:01.046Z,82.30
2017-09-21T01:26:29.453Z,82.20
2017-09-21T01:28:57.011Z,82.10
2017-09-21T01:31:24.703Z,82.30
2017-09-21T01:33:53.047Z,82.70
2017-09-21T01:36:20.643Z,82.70
2017-09-21T01:38:48.284Z,82.40
2017-09-21T01:41:15.867Z,82.40
2017-09-21T01:43:43.525Z,82.20
2017-09-21T01:46:11.102Z,82.40
2017-09-21T01:48:38.688Z,82.50
2017-09-21T01:51:06.306Z,82.40
2017-09-21T01:53:33.882Z,82.30
2017-09-21T01:56:01.525Z,82.40
2017-09-21T01:58:29.112Z,82.30
2017-09-21T02:00:56.735Z,82.10
2017-09-21T02:03:24.353Z,82.50
2017-09-21T02:05:51.939Z,82.50
2017-09-21T02:08:20.310Z,82.30
2017-09-21T02:10:48.691Z,82.20
2017-09-21T02:13:16.316Z,82.20
2017-09-21T02:15:43.886Z,82.60
2017-09-21T02:18:11.518Z,83.00
2017-09-21T02:20:39.102Z,83.00
2017-09-21T02:23:06.698Z,82.90
2017-09-21T02:25:35.122Z,82.70
2017-09-21T02:28:03.473Z,82.70
2017-09-21T02:30:31.253Z,82.70
2017-09-21T02:32:58.835Z,82.60
2017-09-21T02:35:26.427Z,82.90
2017-09-21T02:37:54.035Z,82.70
2017-09-21T02:40:21.666Z,82.60
2017-09-21T02:42:50.001Z,83.00
2017-09-21T02:45:17.634Z,82.90
2017-09-21T02:47:45.254Z,82.80
2017-09-21T02:50:12.877Z,83.00
2017-09-21T02:52:40.468Z,82.60
2017-09-21T02:55:08.075Z,82.60
2017-09-21T02:57:35.765Z,82.60
2017-09-21T03:00:03.378Z,82.70
2017-09-21T03:02:31.709Z,82.50
2017-09-21T03:04:59.353Z,82.50
2017-09-21T03:07:26.921Z,82.60
2017-09-21T03:09:54.518Z,82.80
2017-09-21T03:12:22.127Z,82.30
2017-09-21T03:14:49.745Z,82.40
2017-09-21T03:17:17.318Z,82.80
2017-09-21T03:19:44.982Z,82.70
2017-09-21T03:22:13.350Z,82.70
2017-09-21T03:24:41.771Z,83.60
2017-09-21T03:27:09.329Z,83.00
2017-09-21T03:29:36.988Z,83.20
2017-09-21T03:32:04.550Z,82.90
2017-09-21T03:34:32.887Z,82.90
2017-09-21T03:37:00.488Z,82.90
2017-09-21T03:39:28.086Z,82.90
2017-09-21T03:41:55.740Z,82.60
2017-09-21T03:44:23.409Z,82.50
2017-09-21T03:46:50.986Z,83.30
2017-09-21T03:49:18.624Z,83.20
2017-09-21T03:51:46.238Z,83.00
2017-09-21T03:54:13.832Z,83.10
2017-09-21T03:56:41.471Z,83.70
2017-09-21T03:59:09.821Z,84.10
2017-09-21T04:01:37.407Z,84.00
2017-09-21T04:04:05.872Z,84.20
2017-09-21T04:06:33.442Z,84.20
2017-09-21T04:09:01.843Z,84.90
2017-09-21T04:11:29.496Z,84.80
2017-09-21T04:13:57.854Z,85.10
2017-09-21T04:16:25.474Z,85.10
2017-09-21T04:18:53.064Z,85.00
2017-09-21T04:21:20.662Z,84.50
2017-09-21T04:23:49.080Z,84.60
2017-09-21T04:26:16.668Z,84.60
2017-09-21T04:28:44.313Z,84.50
2017-09-21T04:31:11.997Z,84.60
2017-09-21T04:33:39.649Z,84.60
2017-09-21T04:36:07.292Z,85.10
2017-09-21T04:38:34.914Z,85.50
2017-09-21T04:41:03.309Z,86.00
2017-09-21T04:43:30.879Z,86.00
2017-09-21T04:45:58.668Z,86.30
2017-09-21T04:48:26.297Z,86.30
2017-09-21T04:50:53.932Z,86.30
2017-09-21T04:53:21.550Z,85.20
2017-09-21T04:55:49.179Z,84.80
2017-09-21T04:58:17.525Z,84.50
2017-09-21T05:00:45.977Z,83.70
2017-09-21T05:03:13.579Z,83.70
2017-09-21T05:05:42.014Z,83.60
2017-09-21T05:08:09.634Z,83.60
2017-09-21T05:10:38.126Z,84.00
2017-09-21T05:13:05.759Z,84.00
2017-09-21T05:15:33.365Z,84.40
2017-09-21T05:18:01.019Z,85.10
2017-09-21T05:20:28.643Z,85.00
2017-09-21T05:22:56.338Z,85.10
2017-09-21T05:25:24.764Z,84.50
2017-09-21T05:27:52.381Z,84.50
2017-09-21T05:30:19.995Z,84.90
2017-09-21T05:32:47.645Z,85.10
2017-09-21T05:35:15.243Z,85.20
2017-09-21T05:37:42.810Z,84.60
2017-09-21T05:40:10.513Z,84.70
2017-09-21T05:42:38.225Z,85.20
2017-09-21T05:45:05.895Z,85.40
2017-09-21T05:47:34.245Z,86.60
2017-09-21T05:50:01.908Z,86.60
2017-09-21T05:52:29.534Z,86.40
2017-09-21T05:54:57.190Z,86.40
2017-09-21T05:57:24.830Z,86.40
2017-09-21T05:59:52.509Z,86.00
2017-09-21T06:02:20.113Z,86.00
2017-09-21T06:04:47.723Z,86.30
2017-09-21T06:07:16.122Z,85.90
2017-09-21T06:09:43.739Z,85.90
2017-09-21T06:12:11.382Z,85.10
2017-09-21T06:14:39.004Z,84.80
2017-09-21T06:17:06.579Z,84.00
2017-09-21T06:19:34.662Z,84.80
2017-09-21T06:22:02.959Z,85.40
2017-09-21T06:24:30.627Z,84.70
2017-09-21T06:26:58.210Z,84.70
2017-09-21T06:29:26.753Z,84.50
2017-09-21T06:31:54.339Z,85.00
2017-09-21T06:34:23.823Z,84.40
2017-09-21T06:36:51.876Z,83.90
2017-09-21T06:39:24.382Z,84.20
2017-09-21T06:41:52.315Z,84.10
2017-09-21T06:44:20.126Z,83.50
2017-09-21T06:46:47.700Z,83.00
2017-09-21T06:49:15.323Z,83.20
2017-09-21T06:51:43.129Z,82.60
2017-09-21T06:54:10.797Z,80.10
2017-09-21T06:56:38.754Z,79.40
2017-09-21T06:59:07.169Z,78.70
2017-09-21T07:01:35.510Z,78.30
2017-09-21T07:04:04.097Z,77.90
2017-09-21T07:06:31.686Z,77.80
2017-09-21T07:09:00.082Z,76.60
2017-09-21T07:11:27.697Z,76.60
2017-09-21T07:13:55.290Z,76.20
2017-09-21T07:16:23.727Z,75.90
2017-09-21T07:18:51.819Z,75.90
2017-09-21T07:21:19.385Z,76.10
2017-09-21T07:23:46.994Z,76.60
2017-09-21T07:26:14.636Z,76.40
2017-09-21T07:28:42.970Z,75.70
2017-09-21T07:31:10.548Z,75.70
2017-09-21T07:33:38.215Z,74.90
2017-09-21T07:36:05.835Z,75.10
2017-09-21T07:38:34.281Z,74.10
2017-09-21T07:41:02.629Z,74.50
2017-09-21T07:43:30.192Z,74.50
2017-09-21T07:45:57.828Z,75.20
2017-09-21T07:48:25.442Z,75.60
2017-09-21T07:50:53.899Z,75.50
2017-09-21T07:53:23.554Z,75.50
2017-09-21T07:55:51.181Z,75.30
2017-09-21T07:58:19.581Z,74.70
2017-09-21T08:00:47.216Z,74.70
2017-09-21T08:03:15.572Z,73.10
2017-09-21T08:05:43.384Z,73.10
2017-09-21T08:08:11.713Z,73.70
2017-09-21T08:10:39.309Z,73.60
2017-09-21T08:13:06.974Z,73.80
2017-09-21T08:15:35.471Z,73.30
2017-09-21T08:18:03.878Z,72.10
2017-09-21T08:20:31.466Z,72.10
2017-09-21T08:22:59.115Z,71.30
2017-09-21T08:25:26.697Z,70.60
2017-09-21T08:27:54.342Z,69.40
2017-09-21T08:30:21.961Z,67.40
2017-09-21T08:32:49.537Z,66.00
2017-09-21T08:35:17.122Z,64.50
2017-09-21T08:37:44.725Z,62.80
2017-09-21T08:40:13.080Z,60.70
2017-09-21T08:42:40.767Z,60.60
2017-09-21T08:45:08.412Z,60.10
2017-09-21T08:47:36.293Z,59.90
2017-09-21T08:50:03.915Z,59.10
2017-09-21T08:52:31.496Z,60.80
2017-09-21T08:54:59.135Z,59.70
2017-09-21T08:57:27.127Z,61.50
2017-09-21T08:59:54.744Z,60.70
2017-09-21T09:02:22.661Z,61.00
2017-09-21T09:04:50.355Z,61.20
2017-09-21T09:07:18.739Z,62.10
2017-09-21T09:09:47.136Z,60.90
2017-09-21T09:12:14.757Z,62.30
2017-09-21T09:14:42.322Z,60.90
2017-09-21T09:17:09.906Z,62.00
2017-09-21T09:19:38.272Z,61.80
2017-09-21T09:22:06.661Z,58.70
2017-09-21T09:24:35.065Z,56.20
2017-09-21T09:27:02.809Z,56.20
2017-09-21T09:29:31.150Z,59.70
2017-09-21T09:31:58.768Z,59.60
2017-09-21T09:34:26.425Z,59.10
2017-09-21T09:36:54.181Z,57.50
2017-09-21T09:39:21.841Z,58.20
2017-09-21T09:41:50.186Z,57.70
2017-09-21T09:44:17.928Z,57.70
2017-09-21T09:46:45.594Z,56.00
2017-09-21T09:49:13.204Z,51.90
2017-09-21T09:51:41.786Z,52.50
2017-09-21T09:54:12.166Z,53.70
2017-09-21T09:56:40.048Z,53.60
2017-09-21T09:59:08.493Z,49.70
2017-09-21T10:01:36.087Z,49.60
2017-09-21T10:04:03.713Z,51.20
2017-09-21T10:06:32.191Z,49.70
2017-09-21T10:08:59.974Z,50.30
2017-09-21T10:11:27.563Z,46.40
2017-09-21T10:13:55.179Z,47.40
2017-09-21T10:16:22.836Z,45.20
2017-09-21T10:18:50.542Z,46.40
2017-09-21T10:21:18.201Z,46.80
2017-09-21T10:23:45.837Z,45.50
2017-09-21T10:26:13.441Z,46.30
2017-09-21T10:28:41.029Z,46.40
2017-09-21T10:31:09.410Z,42.50
2017-09-21T10:33:37.790Z,44.10
2017-09-21T10:36:05.429Z,44.00
2017-09-21T10:38:33.053Z,44.80
2017-09-21T10:41:01.401Z,41.40
2017-09-21T10:43:40.254Z,39.70
2017-09-21T10:46:09.197Z,38.50
2017-09-21T10:48:36.780Z,38.50
2017-09-21T10:51:04.503Z,39.00
2017-09-21T10:53:32.390Z,42.60
2017-09-21T10:56:00.347Z,40.80
2017-09-21T10:58:28.046Z,42.30
2017-09-21T11:00:56.463Z,43.80
2017-09-21T11:03:24.037Z,43.80
2017-09-21T11:05:52.381Z,41.30
2017-09-21T11:08:20.021Z,41.20
2017-09-21T11:10:47.647Z,43.70
2017-09-21T11:13:15.310Z,45.50
2017-09-21T11:15:42.980Z,44.50
2017-09-21T11:18:10.645Z,46.80
2017-09-21T11:20:38.257Z,47.20
2017-09-21T11:23:05.870Z,45.90
2017-09-21T11:25:33.480Z,45.40
2017-09-21T11:28:01.072Z,43.90
2017-09-21T11:30:28.750Z,41.60
2017-09-21T11:32:56.351Z,41.70
2017-09-21T11:35:24.699Z,43.70
2017-09-21T11:37:52.409Z,43.60
2017-09-21T11:40:20.079Z,45.60
2017-09-21T11:42:47.699Z,45.00
2017-09-21T11:45:16.027Z,42.60
2017-09-21T11:47:43.669Z,42.50
2017-09-21T11:50:11.302Z,41.20
2017-09-21T11:52:38.899Z,41.80
2017-09-21T11:55:06.516Z,38.00
2017-09-21T11:57:34.913Z,38.90
2017-09-21T12:00:02.498Z,37.10
2017-09-21T12:02:30.884Z,32.30
2017-09-21T12:04:58.462Z,32.20
2017-09-21T12:07:26.097Z,32.30
2017-09-21T12:09:53.780Z,35.40
2017-09-21T12:12:21.365Z,32.10
2017-09-21T12:14:49.085Z,30.90
2017-09-21T12:17:16.670Z,31.80
2017-09-21T12:19:44.250Z,31.00
2017-09-21T12:22:11.936Z,31.10
2017-09-21T12:24:39.515Z,32.20
2017-09-21T12:27:08.248Z,33.00
2017-09-21T12:29:35.896Z,32.90
2017-09-21T12:32:03.504Z,32.20
2017-09-21T12:34:31.169Z,32.90
2017-09-21T12:36:58.727Z,29.80
2017-09-21T12:39:27.430Z,30.70
2017-09-21T12:41:55.790Z,30.10
2017-09-21T12:44:23.376Z,30.00
2017-09-21T12:46:51.786Z,28.00
2017-09-21T12:49:19.349Z,28.00
2017-09-21T12:51:46.994Z,29.10
2017-09-21T12:54:14.612Z,30.40
2017-09-21T12:56:42.178Z,31.00
2017-09-21T12:59:09.807Z,34.00
2017-09-21T13:01:37.589Z,35.40
2017-09-21T13:04:05.153Z,35.50
2017-09-21T13:06:32.781Z,35.20
2017-09-21T13:09:00.405Z,33.80
2017-09-21T13:11:28.747Z,36.20
2017-09-21T13:13:56.328Z,36.20
2017-09-21T13:16:24.035Z,36.10
2017-09-21T13:18:51.669Z,35.50
2017-09-21T13:21:20.029Z,36.00
2017-09-21T13:23:47.636Z,36.00
2017-09-21T13:26:16.046Z,36.80
2017-09-21T13:28:43.653Z,36.90
2017-09-21T13:31:12.054Z,36.80
2017-09-21T13:33:40.448Z,35.90
2017-09-21T13:36:08.035Z,35.80
2017-09-21T13:38:35.674Z,34.40
2017-09-21T13:41:04.065Z,35.00
2017-09-21T13:43:31.648Z,35.00
2017-09-21T13:45:59.331Z,34.70
2017-09-21T13:48:26.956Z,35.90
2017-09-21T13:50:54.643Z,35.40
2017-09-21T13:53:22.509Z,36.00
2017-09-21T13:55:50.112Z,34.20
2017-09-21T13:58:17.866Z,33.90
2017-09-21T14:00:46.229Z,33.00
2017-09-21T14:03:13.817Z,33.00
2017-09-21T14:05:41.439Z,33.00
2017-09-21T14:08:09.023Z,34.30
2017-09-21T14:10:37.472Z,33.60
2017-09-21T14:13:05.159Z,33.60
2017-09-21T14:15:34.081Z,34.90
2017-09-21T14:18:04.207Z,34.50
2017-09-21T14:20:33.957Z,34.50
2017-09-21T14:23:02.266Z,35.00
2017-09-21T14:25:29.993Z,33.20
2017-09-21T14:27:57.592Z,33.10
2017-09-21T14:30:25.269Z,33.70
2017-09-21T14:32:52.990Z,33.10
2017-09-21T14:35:20.762Z,33.50
2017-09-21T14:37:48.370Z,32.30
2017-09-21T14:40:16.093Z,33.40
2017-09-21T14:42:43.773Z,33.60
2017-09-21T14:45:11.447Z,32.50
2017-09-21T14:47:39.141Z,32.60
2017-09-21T14:50:07.474Z,34.50
2017-09-21T14:52:35.868Z,34.10
2017-09-21T14:55:04.332Z,34.20
2017-09-21T14:57:32.072Z,34.20
2017-09-21T14:59:59.709Z,34.40
2017-09-21T15:02:27.400Z,33.40
2017-09-21T15:04:54.965Z,34.50
2017-09-21T15:07:22.627Z,34.20
2017-09-21T15:09:50.316Z,34.80
2017-09-21T15:12:18.060Z,34.40
2017-09-21T15:14:45.688Z,33.70
2017-09-21T15:17:13.277Z,34.40
2017-09-21T15:19:40.901Z,34.40
2017-09-21T15:22:09.281Z,32.60
2017-09-21T15:24:36.848Z,33.20
2017-09-21T15:27:04.494Z,33.50
2017-09-21T15:29:32.165Z,32.80
2017-09-21T15:31:59.819Z,34.50
2017-09-21T15:34:28.249Z,34.90
2017-09-21T15:36:55.971Z,34.90
2017-09-21T15:39:23.563Z,34.50
2017-09-21T15:41:51.141Z,35.30
2017-09-21T15:44:18.780Z,34.70
2017-09-21T15:46:46.358Z,33.30
2017-09-21T15:49:14.015Z,32.80
2017-09-21T15:51:41.669Z,31.50
2017-09-21T15:54:09.259Z,32.00
2017-09-21T15:56:36.894Z,31.80
2017-09-21T15:59:05.429Z,33.50
2017-09-21T16:01:33.201Z,33.40
2017-09-21T16:04:01.543Z,34.90
2017-09-21T16:06:29.111Z,34.90
2017-09-21T16:08:56.778Z,33.40
2017-09-21T16:11:24.359Z,33.40
2017-09-21T16:13:52.989Z,33.40
2017-09-21T16:16:20.608Z,33.40
2017-09-21T16:18:48.214Z,32.90
2017-09-21T16:21:15.818Z,33.60
2017-09-21T16:23:43.469Z,33.40
2017-09-21T16:26:11.111Z,33.90
2017-09-21T16:28:38.740Z,34.10
2017-09-21T16:31:06.353Z,34.10
2017-09-21T16:33:33.916Z,34.40
2017-09-21T16:36:01.576Z,34.20
2017-09-21T16:38:29.285Z,34.20
2017-09-21T16:40:56.949Z,34.70
2017-09-21T16:43:24.581Z,34.60
2017-09-21T16:45:52.219Z,35.00
2017-09-21T16:48:19.861Z,35.20
2017-09-21T16:50:47.479Z,35.90
2017-09-21T16:53:15.847Z,36.60
2017-09-21T16:55:43.443Z,36.60
2017-09-21T16:58:11.110Z,37.20
2017-09-21T17:00:38.683Z,38.50
2017-09-21T17:03:06.255Z,39.00
2017-09-21T17:05:33.875Z,39.20
2017-09-21T17:08:01.508Z,39.20
2017-09-21T17:10:29.115Z,38.80
2017-09-21T17:12:56.745Z,39.20
2017-09-21T17:15:24.403Z,42.60
2017-09-21T17:17:51.982Z,44.80
2017-09-21T17:20:20.391Z,47.10
2017-09-21T17:22:47.967Z,47.10
2017-09-21T17:25:15.646Z,47.10
2017-09-21T17:27:43.220Z,47.20
2017-09-21T17:30:10.839Z,47.20
2017-09-21T17:32:38.465Z,47.80
2017-09-21T17:35:06.056Z,49.00
2017-09-21T17:37:33.707Z,48.40
2017-09-21T17:40:01.325Z,48.80
2017-09-21T17:42:28.940Z,50.00
2017-09-21T17:44:56.563Z,51.40
2017-09-21T17:47:24.922Z,51.10
2017-09-21T17:49:52.617Z,51.10
2017-09-21T17:52:21.039Z,52.70
2017-09-21T17:54:48.616Z,52.70
2017-09-21T17:57:16.230Z,53.00
2017-09-21T17:59:43.860Z,52.80
2017-09-21T18:02:11.492Z,51.80
2017-09-21T18:04:39.179Z,52.40
2017-09-21T18:07:06.787Z,53.90
2017-09-21T18:09:34.474Z,54.50
2017-09-21T18:12:02.060Z,54.30
2017-09-21T18:14:29.646Z,55.10
2017-09-21T18:16:57.291Z,55.30
2017-09-21T18:19:24.933Z,55.90
2017-09-21T18:21:52.582Z,55.60
2017-09-21T18:24:20.167Z,55.50
2017-09-21T18:26:47.827Z,54.50
2017-09-21T18:29:15.447Z,55.50
2017-09-21T18:31:43.070Z,55.00
2017-09-21T18:34:11.360Z,55.70
2017-09-21T18:36:38.981Z,55.80
2017-09-21T18:39:06.594Z,56.30
2017-09-21T18:41:34.953Z,56.20
2017-09-21T18:44:02.568Z,56.10
2017-09-21T18:46:30.146Z,55.50
2017-09-21T18:48:57.887Z,55.30
2017-09-21T18:51:25.483Z,55.70
2017-09-21T18:53:53.099Z,56.00
2017-09-21T18:56:20.673Z,56.70
2017-09-21T18:58:48.262Z,57.10
2017-09-21T19:01:15.887Z,56.50
2017-09-21T19:03:43.516Z,56.20
2017-09-21T19:06:11.151Z,56.10
2017-09-21T19:08:38.719Z,54.80
2017-09-21T19:11:07.187Z,54.30
2017-09-21T19:13:34.815Z,53.70
2017-09-21T19:16:02.391Z,54.50
2017-09-21T19:18:30.048Z,53.50
2017-09-21T19:20:57.624Z,53.50
2017-09-21T19:23:25.260Z,53.50
2017-09-21T19:25:52.838Z,52.60
2017-09-21T19:28:20.478Z,52.80
2017-09-21T19:30:48.097Z,53.90
2017-09-21T19:33:15.676Z,53.80
2017-09-21T19:35:43.312Z,54.30
2017-09-21T19:38:10.879Z,53.70
2017-09-21T19:40:38.482Z,53.40
2017-09-21T19:43:08.085Z,53.30
2017-09-21T19:45:36.424Z,52.70
2017-09-21T19:48:04.061Z,52.70
2017-09-21T19:50:31.643Z,52.50
2017-09-21T19:52:59.220Z,52.50
2017-09-21T19:55:26.853Z,52.50
2017-09-21T19:57:54.464Z,52.70
2017-09-21T20:00:22.845Z,53.10
2017-09-21T20:02:51.264Z,53.20
2017-09-21T20:05:18.896Z,53.10
2017-09-21T20:07:46.531Z,53.00
2017-09-21T20:10:14.106Z,52.80
2017-09-21T20:12:42.461Z,56.20
2017-09-21T20:15:10.078Z,56.20
2017-09-21T20:17:37.653Z,58.10
2017-09-21T20:20:05.293Z,58.60
2017-09-21T20:22:32.876Z,58.50
2017-09-21T20:25:00.452Z,58.00
2017-09-21T20:27:28.083Z,57.70
2017-09-21T20:29:55.671Z,57.60
2017-09-21T20:32:23.238Z,56.00
2017-09-21T20:34:50.843Z,56.60
2017-09-21T20:37:19.201Z,55.20
2017-09-21T20:39:46.832Z,55.20
2017-09-21T20:42:14.436Z,56.70
2017-09-21T20:44:42.879Z,55.00
2017-09-21T20:47:10.483Z,55.00
2017-09-21T20:49:38.819Z,56.60
2017-09-21T20:52:06.422Z,56.60
2017-09-21T20:54:34.771Z,55.80
2017-09-21T20:57:02.403Z,55.80
2017-09-21T20:59:29.980Z,57.00
2017-09-21T21:01:57.584Z,58.50
2017-09-21T21:04:25.934Z,57.50
2017-09-21T21:06:53.607Z,57.40
2017-09-21T21:09:21.238Z,57.30
2017-09-21T21:11:48.857Z,56.70
2017-09-21T21:14:17.196Z,55.30
2017-09-21T21:16:44.817Z,55.30
2017-09-21T21:19:12.387Z,57.40
2017-09-21T21:21:39.965Z,57.50
2017-09-21T21:24:07.576Z,56.20
2017-09-21T21:26:35.912Z,56.50
2017-09-21T21:29:03.522Z,56.50
2017-09-21T21:31:31.851Z,56.10
2017-09-21T21:33:59.501Z,56.10
2017-09-21T21:36:27.082Z,55.70
2017-09-21T21:38:56.304Z,57.20
2017-09-21T21:41:23.919Z,57.20
2017-09-21T21:43:51.490Z,60.20
2017-09-21T21:46:19.051Z,61.00
2017-09-21T21:48:46.652Z,59.50
2017-09-21T21:51:14.277Z,59.50
2017-09-21T21:53:41.896Z,59.50
2017-09-21T21:56:10.331Z,58.10
2017-09-21T21:58:37.913Z,58.00
2017-09-21T22:01:05.533Z,57.80
2017-09-21T22:03:33.140Z,58.50
2017-09-21T22:06:00.743Z,59.00
2017-09-21T22:08:28.346Z,57.90
2017-09-21T22:10:55.916Z,57.10
2017-09-21T22:13:23.543Z,58.20
2017-09-21T22:15:51.143Z,61.00
2017-09-21T22:18:18.743Z,62.80
2017-09-21T22:20:46.375Z,60.70
2017-09-21T22:23:13.957Z,61.40
2017-09-21T22:25:42.306Z,61.30
2017-09-21T22:28:09.945Z,61.30
2017-09-21T22:30:37.563Z,62.30
2017-09-21T22:33:05.171Z,62.10
2017-09-21T22:35:32.735Z,60.90
2017-09-21T22:38:00.356Z,60.20
2017-09-21T22:40:27.935Z,60.80
2017-09-21T22:42:55.540Z,59.20
2017-09-21T22:45:23.176Z,57.90
2017-09-21T22:47:50.801Z,58.60
2017-09-21T22:50:18.407Z,60.30
2017-09-21T22:52:45.980Z,61.50
2017-09-21T22:55:13.590Z,59.90
2017-09-21T22:57:41.855Z,59.60
2017-09-21T23:00:09.445Z,59.50
2017-09-21T23:02:37.024Z,58.20
2017-09-21T23:05:04.643Z,58.00
2017-09-21T23:07:32.975Z,56.90
2017-09-21T23:10:00.590Z,56.90
2017-09-21T23:12:28.180Z,58.20
2017-09-21T23:14:55.803Z,58.80
2017-09-21T23:17:24.137Z,57.40
2017-09-21T23:19:51.701Z,57.40
2017-09-21T23:22:19.307Z,56.80
2017-09-21T23:24:46.916Z,58.00
2017-09-21T23:27:14.533Z,59.70
2017-09-21T23:29:42.142Z,59.20
2017-09-21T23:32:09.752Z,58.10
2017-09-21T23:34:37.368Z,57.70
2017-09-21T23:37:04.948Z,58.00
2017-09-21T23:39:32.548Z,57.50
2017-09-21T23:42:00.197Z,57.20
2017-09-21T23:44:27.766Z,57.10
2017-09-21T23:46:55.383Z,56.90
2017-09-21T23:49:22.951Z,59.40
2017-09-21T23:51:50.566Z,59.20
2017-09-21T23:54:18.129Z,58.30
2017-09-21T23:56:46.474Z,59.60
2017-09-21T23:59:14.848Z,59.70
